sensor_id;sensor_type;location;lat;lon;timestamp;P1;durP1;ratioP1;P2;durP2;ratioP2
53927;SDS011;39837;47.630;18.822;2023-03-03T00:02:44;3.25;;;3.05;;
53927;SDS011;39837;47.630;18.822;2023-03-03T00:05:28;2.17;;;2.10;;
53927;SDS011;39837;47.630;18.822;2023-03-03T00:08:15;1.95;;;1.95;;
53927;SDS011;39837;47.630;18.822;2023-03-03T00:10:58;2.15;;;2.05;;
53927;SDS011;39837;47.630;18.822;2023-03-03T00:13:47;3.47;;;3.28;;
53927;SDS011;39837;47.630;18.822;2023-03-03T00:16:37;4.40;;;3.78;;
53927;SDS011;39837;47.630;18.822;2023-03-03T00:19:21;2.95;;;2.72;;
53927;SDS011;39837;47.630;18.822;2023-03-03T00:22:06;3.25;;;3.05;;
53927;SDS011;39837;47.630;18.822;2023-03-03T00:31:16;4.07;;;3.25;;
53927;SDS011;39837;47.630;18.822;2023-03-03T00:37:02;3.95;;;3.22;;
53927;SDS011;39837;47.630;18.822;2023-03-03T00:39:47;3.13;;;2.08;;
53927;SDS011;39837;47.630;18.822;2023-03-03T00:42:31;4.15;;;3.15;;
53927;SDS011;39837;47.630;18.822;2023-03-03T00:51:23;2.63;;;2.53;;
53927;SDS011;39837;47.630;18.822;2023-03-03T00:54:10;3.20;;;2.88;;
53927;SDS011;39837;47.630;18.822;2023-03-03T00:56:53;2.90;;;2.78;;
53927;SDS011;39837;47.630;18.822;2023-03-03T00:59:37;2.40;;;2.20;;
53927;SDS011;39837;47.630;18.822;2023-03-03T01:02:22;4.05;;;3.17;;
53927;SDS011;39837;47.630;18.822;2023-03-03T01:05:06;2.83;;;2.72;;
53927;SDS011;39837;47.630;18.822;2023-03-03T01:07:50;2.55;;;2.45;;
53927;SDS011;39837;47.630;18.822;2023-03-03T01:10:35;2.28;;;2.17;;
53927;SDS011;39837;47.630;18.822;2023-03-03T01:13:26;3.25;;;2.85;;
53927;SDS011;39837;47.630;18.822;2023-03-03T01:16:11;5.80;;;3.05;;
53927;SDS011;39837;47.630;18.822;2023-03-03T01:18:55;3.17;;;2.92;;
53927;SDS011;39837;47.630;18.822;2023-03-03T01:21:39;3.33;;;3.03;;
53927;SDS011;39837;47.630;18.822;2023-03-03T01:24:23;2.28;;;2.15;;
53927;SDS011;39837;47.630;18.822;2023-03-03T01:27:08;5.97;;;3.35;;
53927;SDS011;39837;47.630;18.822;2023-03-03T01:29:51;3.00;;;2.80;;
53927;SDS011;39837;47.630;18.822;2023-03-03T01:32:35;3.30;;;3.00;;
53927;SDS011;39837;47.630;18.822;2023-03-03T01:35:19;3.72;;;2.95;;
53927;SDS011;39837;47.630;18.822;2023-03-03T01:38:04;4.93;;;2.35;;
53927;SDS011;39837;47.630;18.822;2023-03-03T01:40:54;2.28;;;2.08;;
53927;SDS011;39837;47.630;18.822;2023-03-03T01:43:43;2.38;;;2.20;;
53927;SDS011;39837;47.630;18.822;2023-03-03T01:49:47;2.22;;;2.13;;
53927;SDS011;39837;47.630;18.822;2023-03-03T01:52:33;2.28;;;2.17;;
53927;SDS011;39837;47.630;18.822;2023-03-03T01:55:20;7.53;;;2.22;;
53927;SDS011;39837;47.630;18.822;2023-03-03T01:58:08;2.53;;;2.42;;
53927;SDS011;39837;47.630;18.822;2023-03-03T02:00:59;2.40;;;2.30;;
53927;SDS011;39837;47.630;18.822;2023-03-03T02:03:46;3.40;;;2.78;;
53927;SDS011;39837;47.630;18.822;2023-03-03T02:06:32;1.58;;;1.58;;
53927;SDS011;39837;47.630;18.822;2023-03-03T02:12:16;3.10;;;2.92;;
53927;SDS011;39837;47.630;18.822;2023-03-03T02:15:07;3.20;;;2.08;;
53927;SDS011;39837;47.630;18.822;2023-03-03T02:18:06;2.65;;;2.35;;
53927;SDS011;39837;47.630;18.822;2023-03-03T02:26:37;2.38;;;2.28;;
53927;SDS011;39837;47.630;18.822;2023-03-03T02:29:25;3.60;;;2.10;;
53927;SDS011;39837;47.630;18.822;2023-03-03T02:32:10;2.60;;;2.05;;
53927;SDS011;39837;47.630;18.822;2023-03-03T02:34:54;2.15;;;2.05;;
53927;SDS011;39837;47.630;18.822;2023-03-03T02:37:38;1.63;;;1.63;;
53927;SDS011;39837;47.630;18.822;2023-03-03T02:40:23;1.80;;;1.80;;
53927;SDS011;39837;47.630;18.822;2023-03-03T02:43:08;1.77;;;1.77;;
53927;SDS011;39837;47.630;18.822;2023-03-03T02:45:52;1.50;;;1.50;;
53927;SDS011;39837;47.630;18.822;2023-03-03T02:48:36;1.67;;;1.67;;
53927;SDS011;39837;47.630;18.822;2023-03-03T02:51:20;2.97;;;2.72;;
53927;SDS011;39837;47.630;18.822;2023-03-03T02:54:04;2.38;;;2.17;;
53927;SDS011;39837;47.630;18.822;2023-03-03T02:56:49;2.90;;;2.65;;
53927;SDS011;39837;47.630;18.822;2023-03-03T02:59:33;1.80;;;1.75;;
53927;SDS011;39837;47.630;18.822;2023-03-03T03:02:17;2.10;;;2.00;;
53927;SDS011;39837;47.630;18.822;2023-03-03T03:05:02;2.47;;;1.77;;
53927;SDS011;39837;47.630;18.822;2023-03-03T03:07:46;2.03;;;1.92;;
53927;SDS011;39837;47.630;18.822;2023-03-03T03:10:30;1.70;;;1.70;;
53927;SDS011;39837;47.630;18.822;2023-03-03T03:13:15;2.70;;;2.60;;
53927;SDS011;39837;47.630;18.822;2023-03-03T03:15:59;2.88;;;2.67;;
53927;SDS011;39837;47.630;18.822;2023-03-03T03:18:43;2.05;;;1.92;;
53927;SDS011;39837;47.630;18.822;2023-03-03T03:21:28;2.13;;;1.92;;
53927;SDS011;39837;47.630;18.822;2023-03-03T03:24:11;6.85;;;2.55;;
53927;SDS011;39837;47.630;18.822;2023-03-03T03:26:56;2.90;;;2.67;;
53927;SDS011;39837;47.630;18.822;2023-03-03T03:29:40;3.05;;;2.63;;
53927;SDS011;39837;47.630;18.822;2023-03-03T03:32:25;1.27;;;1.27;;
53927;SDS011;39837;47.630;18.822;2023-03-03T03:35:09;2.40;;;2.30;;
53927;SDS011;39837;47.630;18.822;2023-03-03T03:37:54;2.53;;;2.47;;
53927;SDS011;39837;47.630;18.822;2023-03-03T03:40:38;3.30;;;2.28;;
53927;SDS011;39837;47.630;18.822;2023-03-03T03:43:22;1.77;;;1.65;;
53927;SDS011;39837;47.630;18.822;2023-03-03T03:46:06;2.00;;;1.90;;
53927;SDS011;39837;47.630;18.822;2023-03-03T03:48:51;9.23;;;1.50;;
53927;SDS011;39837;47.630;18.822;2023-03-03T03:51:34;1.58;;;1.58;;
53927;SDS011;39837;47.630;18.822;2023-03-03T03:54:20;1.83;;;1.73;;
53927;SDS011;39837;47.630;18.822;2023-03-03T03:57:04;1.88;;;1.85;;
53927;SDS011;39837;47.630;18.822;2023-03-03T03:59:49;3.08;;;2.65;;
53927;SDS011;39837;47.630;18.822;2023-03-03T04:02:33;3.83;;;2.38;;
53927;SDS011;39837;47.630;18.822;2023-03-03T04:05:18;2.10;;;2.00;;
53927;SDS011;39837;47.630;18.822;2023-03-03T04:08:02;2.95;;;2.72;;
53927;SDS011;39837;47.630;18.822;2023-03-03T04:10:46;2.25;;;2.15;;
53927;SDS011;39837;47.630;18.822;2023-03-03T04:13:30;2.25;;;2.25;;
53927;SDS011;39837;47.630;18.822;2023-03-03T04:16:17;1.85;;;1.85;;
53927;SDS011;39837;47.630;18.822;2023-03-03T04:19:01;2.53;;;2.42;;
53927;SDS011;39837;47.630;18.822;2023-03-03T04:21:46;1.40;;;1.40;;
53927;SDS011;39837;47.630;18.822;2023-03-03T04:24:30;2.00;;;1.90;;
53927;SDS011;39837;47.630;18.822;2023-03-03T04:27:14;1.55;;;1.55;;
53927;SDS011;39837;47.630;18.822;2023-03-03T04:29:58;1.88;;;1.88;;
53927;SDS011;39837;47.630;18.822;2023-03-03T04:32:44;1.77;;;1.77;;
53927;SDS011;39837;47.630;18.822;2023-03-03T04:35:28;2.03;;;1.98;;
53927;SDS011;39837;47.630;18.822;2023-03-03T04:38:12;2.80;;;2.70;;
53927;SDS011;39837;47.630;18.822;2023-03-03T04:40:56;2.38;;;2.28;;
53927;SDS011;39837;47.630;18.822;2023-03-03T04:43:40;1.95;;;1.85;;
53927;SDS011;39837;47.630;18.822;2023-03-03T04:46:24;3.05;;;2.78;;
53927;SDS011;39837;47.630;18.822;2023-03-03T04:49:08;1.52;;;1.52;;
53927;SDS011;39837;47.630;18.822;2023-03-03T04:51:53;2.40;;;2.30;;
53927;SDS011;39837;47.630;18.822;2023-03-03T04:54:37;2.17;;;2.03;;
53927;SDS011;39837;47.630;18.822;2023-03-03T04:57:21;7.15;;;1.88;;
53927;SDS011;39837;47.630;18.822;2023-03-03T05:00:06;2.25;;;2.05;;
53927;SDS011;39837;47.630;18.822;2023-03-03T05:02:50;2.13;;;2.03;;
53927;SDS011;39837;47.630;18.822;2023-03-03T05:05:35;2.30;;;2.25;;
53927;SDS011;39837;47.630;18.822;2023-03-03T05:08:19;1.73;;;1.73;;
53927;SDS011;39837;47.630;18.822;2023-03-03T05:11:02;4.57;;;2.83;;
53927;SDS011;39837;47.630;18.822;2023-03-03T05:13:47;2.25;;;2.15;;
53927;SDS011;39837;47.630;18.822;2023-03-03T05:16:31;1.92;;;1.92;;
53927;SDS011;39837;47.630;18.822;2023-03-03T05:19:15;3.38;;;3.00;;
53927;SDS011;39837;47.630;18.822;2023-03-03T05:21:59;2.40;;;2.30;;
53927;SDS011;39837;47.630;18.822;2023-03-03T05:24:44;2.65;;;2.45;;
53927;SDS011;39837;47.630;18.822;2023-03-03T05:27:31;1.90;;;1.90;;
53927;SDS011;39837;47.630;18.822;2023-03-03T05:30:15;4.20;;;3.05;;
53927;SDS011;39837;47.630;18.822;2023-03-03T05:33:00;2.35;;;2.15;;
53927;SDS011;39837;47.630;18.822;2023-03-03T05:35:44;2.33;;;2.13;;
53927;SDS011;39837;47.630;18.822;2023-03-03T05:38:29;1.50;;;1.50;;
53927;SDS011;39837;47.630;18.822;2023-03-03T05:41:13;2.03;;;2.00;;
53927;SDS011;39837;47.630;18.822;2023-03-03T05:43:57;2.38;;;2.28;;
53927;SDS011;39837;47.630;18.822;2023-03-03T05:46:41;1.70;;;1.70;;
53927;SDS011;39837;47.630;18.822;2023-03-03T05:49:25;1.80;;;1.80;;
53927;SDS011;39837;47.630;18.822;2023-03-03T05:52:09;2.30;;;2.20;;
53927;SDS011;39837;47.630;18.822;2023-03-03T05:54:54;2.45;;;2.42;;
53927;SDS011;39837;47.630;18.822;2023-03-03T05:57:38;4.13;;;2.85;;
53927;SDS011;39837;47.630;18.822;2023-03-03T06:00:23;2.58;;;2.47;;
53927;SDS011;39837;47.630;18.822;2023-03-03T06:03:07;1.77;;;1.77;;
53927;SDS011;39837;47.630;18.822;2023-03-03T06:05:52;2.00;;;1.90;;
53927;SDS011;39837;47.630;18.822;2023-03-03T06:08:36;2.40;;;2.30;;
53927;SDS011;39837;47.630;18.822;2023-03-03T06:11:20;2.92;;;2.65;;
53927;SDS011;39837;47.630;18.822;2023-03-03T06:14:04;2.90;;;2.70;;
53927;SDS011;39837;47.630;18.822;2023-03-03T06:16:48;2.80;;;2.65;;
53927;SDS011;39837;47.630;18.822;2023-03-03T06:19:32;5.00;;;4.05;;
53927;SDS011;39837;47.630;18.822;2023-03-03T06:22:16;3.58;;;3.33;;
53927;SDS011;39837;47.630;18.822;2023-03-03T06:25:00;6.72;;;3.63;;
53927;SDS011;39837;47.630;18.822;2023-03-03T06:27:44;2.80;;;2.60;;
53927;SDS011;39837;47.630;18.822;2023-03-03T06:30:28;2.60;;;2.47;;
53927;SDS011;39837;47.630;18.822;2023-03-03T06:33:13;3.97;;;3.75;;
53927;SDS011;39837;47.630;18.822;2023-03-03T06:35:57;3.33;;;2.97;;
53927;SDS011;39837;47.630;18.822;2023-03-03T06:38:41;3.40;;;3.20;;
53927;SDS011;39837;47.630;18.822;2023-03-03T06:41:25;6.05;;;5.45;;
53927;SDS011;39837;47.630;18.822;2023-03-03T06:44:09;7.35;;;5.75;;
53927;SDS011;39837;47.630;18.822;2023-03-03T06:46:54;21.48;;;12.00;;
53927;SDS011;39837;47.630;18.822;2023-03-03T06:49:40;13.00;;;7.05;;
53927;SDS011;39837;47.630;18.822;2023-03-03T06:52:25;23.13;;;10.43;;
53927;SDS011;39837;47.630;18.822;2023-03-03T06:55:16;21.45;;;9.27;;
53927;SDS011;39837;47.630;18.822;2023-03-03T06:58:07;12.98;;;8.23;;
53927;SDS011;39837;47.630;18.822;2023-03-03T07:00:57;12.95;;;9.90;;
53927;SDS011;39837;47.630;18.822;2023-03-03T07:06:26;7.85;;;6.88;;
53927;SDS011;39837;47.630;18.822;2023-03-03T07:09:14;19.52;;;13.30;;
53927;SDS011;39837;47.630;18.822;2023-03-03T07:12:09;22.95;;;13.60;;
53927;SDS011;39837;47.630;18.822;2023-03-03T07:18:03;19.27;;;13.10;;
53927;SDS011;39837;47.630;18.822;2023-03-03T07:21:18;16.15;;;9.98;;
53927;SDS011;39837;47.630;18.822;2023-03-03T07:24:20;24.42;;;14.27;;
53927;SDS011;39837;47.630;18.822;2023-03-03T07:27:08;27.00;;;11.23;;
53927;SDS011;39837;47.630;18.822;2023-03-03T07:29:54;27.30;;;13.18;;
53927;SDS011;39837;47.630;18.822;2023-03-03T07:32:42;22.45;;;13.15;;
53927;SDS011;39837;47.630;18.822;2023-03-03T07:35:34;26.55;;;11.98;;
53927;SDS011;39837;47.630;18.822;2023-03-03T07:38:24;18.33;;;13.07;;
53927;SDS011;39837;47.630;18.822;2023-03-03T07:41:15;28.67;;;16.75;;
53927;SDS011;39837;47.630;18.822;2023-03-03T07:44:12;20.20;;;13.48;;
53927;SDS011;39837;47.630;18.822;2023-03-03T07:47:26;24.30;;;14.38;;
53927;SDS011;39837;47.630;18.822;2023-03-03T07:50:18;26.50;;;12.85;;
53927;SDS011;39837;47.630;18.822;2023-03-03T07:53:07;21.98;;;13.07;;
53927;SDS011;39837;47.630;18.822;2023-03-03T07:55:57;19.15;;;10.88;;
53927;SDS011;39837;47.630;18.822;2023-03-03T07:58:41;21.38;;;12.70;;
53927;SDS011;39837;47.630;18.822;2023-03-03T08:01:40;21.60;;;11.80;;
53927;SDS011;39837;47.630;18.822;2023-03-03T08:07:39;24.52;;;15.73;;
53927;SDS011;39837;47.630;18.822;2023-03-03T08:10:43;49.63;;;27.08;;
53927;SDS011;39837;47.630;18.822;2023-03-03T08:16:23;27.45;;;18.85;;
53927;SDS011;39837;47.630;18.822;2023-03-03T08:19:19;27.35;;;13.52;;
53927;SDS011;39837;47.630;18.822;2023-03-03T08:22:14;13.50;;;10.45;;
53927;SDS011;39837;47.630;18.822;2023-03-03T08:25:00;12.40;;;8.32;;
53927;SDS011;39837;47.630;18.822;2023-03-03T08:27:45;6.18;;;5.65;;
53927;SDS011;39837;47.630;18.822;2023-03-03T08:30:29;9.82;;;6.53;;
53927;SDS011;39837;47.630;18.822;2023-03-03T08:33:15;12.77;;;7.05;;
53927;SDS011;39837;47.630;18.822;2023-03-03T08:35:59;8.93;;;7.18;;
53927;SDS011;39837;47.630;18.822;2023-03-03T08:38:43;8.05;;;6.97;;
53927;SDS011;39837;47.630;18.822;2023-03-03T08:41:27;6.20;;;4.72;;
53927;SDS011;39837;47.630;18.822;2023-03-03T08:44:12;4.80;;;4.28;;
53927;SDS011;39837;47.630;18.822;2023-03-03T08:46:55;6.78;;;5.13;;
53927;SDS011;39837;47.630;18.822;2023-03-03T08:49:40;5.03;;;4.63;;
53927;SDS011;39837;47.630;18.822;2023-03-03T08:52:23;9.82;;;5.35;;
53927;SDS011;39837;47.630;18.822;2023-03-03T08:55:08;4.53;;;4.18;;
53927;SDS011;39837;47.630;18.822;2023-03-03T08:57:52;5.47;;;4.93;;
53927;SDS011;39837;47.630;18.822;2023-03-03T09:00:36;5.88;;;4.28;;
53927;SDS011;39837;47.630;18.822;2023-03-03T09:03:21;4.63;;;4.15;;
53927;SDS011;39837;47.630;18.822;2023-03-03T09:06:05;3.60;;;3.42;;
53927;SDS011;39837;47.630;18.822;2023-03-03T09:08:49;4.82;;;4.43;;
53927;SDS011;39837;47.630;18.822;2023-03-03T09:11:34;3.55;;;3.25;;
53927;SDS011;39837;47.630;18.822;2023-03-03T09:14:18;2.60;;;2.50;;
53927;SDS011;39837;47.630;18.822;2023-03-03T09:17:06;3.50;;;3.30;;
53927;SDS011;39837;47.630;18.822;2023-03-03T09:31:58;4.13;;;3.83;;
53927;SDS011;39837;47.630;18.822;2023-03-03T09:34:44;2.75;;;2.55;;
53927;SDS011;39837;47.630;18.822;2023-03-03T09:37:33;4.10;;;3.40;;
53927;SDS011;39837;47.630;18.822;2023-03-03T09:40:32;4.22;;;2.45;;
53927;SDS011;39837;47.630;18.822;2023-03-03T09:47:00;2.58;;;2.42;;
53927;SDS011;39837;47.630;18.822;2023-03-03T10:05:13;2.65;;;2.55;;
53927;SDS011;39837;47.630;18.822;2023-03-03T10:08:27;2.90;;;2.58;;
53927;SDS011;39837;47.630;18.822;2023-03-03T10:11:31;3.60;;;3.38;;
53927;SDS011;39837;47.630;18.822;2023-03-03T10:18:11;2.70;;;2.50;;
53927;SDS011;39837;47.630;18.822;2023-03-03T10:33:24;2.47;;;2.28;;
53927;SDS011;39837;47.630;18.822;2023-03-03T10:42:16;1.83;;;1.83;;
53927;SDS011;39837;47.630;18.822;2023-03-03T10:45:24;1.98;;;1.88;;
53927;SDS011;39837;47.630;18.822;2023-03-03T10:48:25;3.03;;;2.72;;
53927;SDS011;39837;47.630;18.822;2023-03-03T11:12:39;2.38;;;2.22;;
53927;SDS011;39837;47.630;18.822;2023-03-03T11:25:13;3.95;;;3.65;;
53927;SDS011;39837;47.630;18.822;2023-03-03T11:40:25;8.73;;;6.38;;
53927;SDS011;39837;47.630;18.822;2023-03-03T11:46:08;8.55;;;6.00;;
53927;SDS011;39837;47.630;18.822;2023-03-03T11:52:12;11.00;;;5.75;;
53927;SDS011;39837;47.630;18.822;2023-03-03T12:04:12;6.03;;;5.20;;
53927;SDS011;39837;47.630;18.822;2023-03-03T12:07:15;13.38;;;5.05;;
53927;SDS011;39837;47.630;18.822;2023-03-03T12:12:54;13.68;;;6.50;;
53927;SDS011;39837;47.630;18.822;2023-03-03T12:19:21;7.93;;;5.13;;
53927;SDS011;39837;47.630;18.822;2023-03-03T12:33:38;9.98;;;5.68;;
53927;SDS011;39837;47.630;18.822;2023-03-03T12:39:35;5.18;;;4.72;;
53927;SDS011;39837;47.630;18.822;2023-03-03T12:42:45;10.52;;;5.80;;
53927;SDS011;39837;47.630;18.822;2023-03-03T12:48:48;8.55;;;5.07;;
53927;SDS011;39837;47.630;18.822;2023-03-03T12:51:39;5.10;;;4.63;;
53927;SDS011;39837;47.630;18.822;2023-03-03T13:00:40;5.15;;;4.72;;
53927;SDS011;39837;47.630;18.822;2023-03-03T13:18:56;11.02;;;5.97;;
53927;SDS011;39837;47.630;18.822;2023-03-03T13:21:53;6.35;;;5.72;;
53927;SDS011;39837;47.630;18.822;2023-03-03T13:28:15;4.82;;;4.25;;
53927;SDS011;39837;47.630;18.822;2023-03-03T13:31:11;8.25;;;6.15;;
53927;SDS011;39837;47.630;18.822;2023-03-03T13:33:58;7.07;;;5.05;;
53927;SDS011;39837;47.630;18.822;2023-03-03T13:36:50;6.80;;;5.20;;
53927;SDS011;39837;47.630;18.822;2023-03-03T13:39:44;26.13;;;7.00;;
53927;SDS011;39837;47.630;18.822;2023-03-03T13:49:10;7.72;;;6.07;;
53927;SDS011;39837;47.630;18.822;2023-03-03T13:57:54;7.53;;;6.15;;
53927;SDS011;39837;47.630;18.822;2023-03-03T14:03:46;7.55;;;6.28;;
53927;SDS011;39837;47.630;18.822;2023-03-03T14:06:32;6.88;;;5.95;;
53927;SDS011;39837;47.630;18.822;2023-03-03T14:12:37;8.07;;;6.32;;
53927;SDS011;39837;47.630;18.822;2023-03-03T14:19:02;6.97;;;6.00;;
53927;SDS011;39837;47.630;18.822;2023-03-03T14:22:05;14.98;;;8.75;;
53927;SDS011;39837;47.630;18.822;2023-03-03T14:30:38;6.72;;;5.35;;
53927;SDS011;39837;47.630;18.822;2023-03-03T14:33:27;6.57;;;5.40;;
53927;SDS011;39837;47.630;18.822;2023-03-03T14:36:14;10.93;;;7.25;;
53927;SDS011;39837;47.630;18.822;2023-03-03T14:42:37;5.32;;;4.82;;
53927;SDS011;39837;47.630;18.822;2023-03-03T14:45:39;9.75;;;6.22;;
53927;SDS011;39837;47.630;18.822;2023-03-03T14:48:25;8.00;;;5.85;;
53927;SDS011;39837;47.630;18.822;2023-03-03T14:54:38;13.52;;;6.80;;
53927;SDS011;39837;47.630;18.822;2023-03-03T15:06:00;7.82;;;6.55;;
53927;SDS011;39837;47.630;18.822;2023-03-03T15:08:44;9.00;;;6.93;;
53927;SDS011;39837;47.630;18.822;2023-03-03T15:11:31;12.93;;;8.07;;
53927;SDS011;39837;47.630;18.822;2023-03-03T15:14:16;10.10;;;7.28;;
53927;SDS011;39837;47.630;18.822;2023-03-03T15:23:21;15.35;;;9.45;;
53927;SDS011;39837;47.630;18.822;2023-03-03T15:29:24;16.25;;;6.60;;
53927;SDS011;39837;47.630;18.822;2023-03-03T15:32:28;8.55;;;6.72;;
53927;SDS011;39837;47.630;18.822;2023-03-03T15:44:29;10.02;;;7.45;;
53927;SDS011;39837;47.630;18.822;2023-03-03T15:57:20;18.50;;;9.45;;
53927;SDS011;39837;47.630;18.822;2023-03-03T16:03:43;13.13;;;8.68;;
53927;SDS011;39837;47.630;18.822;2023-03-03T16:25:23;9.77;;;6.63;;
53927;SDS011;39837;47.630;18.822;2023-03-03T16:28:29;11.50;;;8.35;;
53927;SDS011;39837;47.630;18.822;2023-03-03T16:38:05;22.15;;;9.32;;
53927;SDS011;39837;47.630;18.822;2023-03-03T16:40:51;11.40;;;8.30;;
53927;SDS011;39837;47.630;18.822;2023-03-03T16:49:36;14.52;;;9.48;;
53927;SDS011;39837;47.630;18.822;2023-03-03T16:52:28;23.10;;;11.95;;
53927;SDS011;39837;47.630;18.822;2023-03-03T16:59:02;15.48;;;8.48;;
53927;SDS011;39837;47.630;18.822;2023-03-03T17:11:27;16.95;;;10.48;;
53927;SDS011;39837;47.630;18.822;2023-03-03T17:20:47;16.67;;;9.52;;
53927;SDS011;39837;47.630;18.822;2023-03-03T17:29:55;22.20;;;11.20;;
53927;SDS011;39837;47.630;18.822;2023-03-03T17:32:46;19.13;;;9.45;;
53927;SDS011;39837;47.630;18.822;2023-03-03T17:36:26;12.18;;;9.63;;
53927;SDS011;39837;47.630;18.822;2023-03-03T17:42:53;16.88;;;11.00;;
53927;SDS011;39837;47.630;18.822;2023-03-03T17:45:14;11.80;;;7.90;;
53927;SDS011;39837;47.630;18.822;2023-03-03T18:13:11;8.88;;;6.32;;
53927;SDS011;39837;47.630;18.822;2023-03-03T18:27:35;14.45;;;6.57;;
53927;SDS011;39837;47.630;18.822;2023-03-03T18:30:23;17.33;;;8.05;;
53927;SDS011;39837;47.630;18.822;2023-03-03T18:33:10;8.70;;;6.80;;
53927;SDS011;39837;47.630;18.822;2023-03-03T18:36:05;12.30;;;7.25;;
53927;SDS011;39837;47.630;18.822;2023-03-03T18:38:55;11.40;;;7.22;;
53927;SDS011;39837;47.630;18.822;2023-03-03T18:45:09;4.97;;;4.57;;
53927;SDS011;39837;47.630;18.822;2023-03-03T18:48:13;7.72;;;5.38;;
53927;SDS011;39837;47.630;18.822;2023-03-03T18:51:00;12.68;;;7.07;;
53927;SDS011;39837;47.630;18.822;2023-03-03T19:02:50;9.23;;;5.97;;
53927;SDS011;39837;47.630;18.822;2023-03-03T19:08:50;5.20;;;4.78;;
53927;SDS011;39837;47.630;18.822;2023-03-03T19:14:31;9.02;;;5.22;;
53927;SDS011;39837;47.630;18.822;2023-03-03T19:20:13;18.48;;;7.82;;
53927;SDS011;39837;47.630;18.822;2023-03-03T19:23:09;7.05;;;6.40;;
53927;SDS011;39837;47.630;18.822;2023-03-03T19:42:02;5.28;;;4.88;;
53927;SDS011;39837;47.630;18.822;2023-03-03T19:44:59;5.30;;;4.32;;
53927;SDS011;39837;47.630;18.822;2023-03-03T19:48:07;7.63;;;5.07;;
53927;SDS011;39837;47.630;18.822;2023-03-03T19:51:26;13.98;;;5.70;;
53927;SDS011;39837;47.630;18.822;2023-03-03T19:57:27;8.85;;;5.15;;
53927;SDS011;39837;47.630;18.822;2023-03-03T20:00:41;5.70;;;5.00;;
53927;SDS011;39837;47.630;18.822;2023-03-03T20:03:48;13.88;;;5.75;;
53927;SDS011;39837;47.630;18.822;2023-03-03T20:06:54;4.88;;;4.47;;
53927;SDS011;39837;47.630;18.822;2023-03-03T20:13:24;6.50;;;4.60;;
53927;SDS011;39837;47.630;18.822;2023-03-03T20:28:46;3.47;;;3.28;;
53927;SDS011;39837;47.630;18.822;2023-03-03T20:41:22;4.55;;;4.15;;
53927;SDS011;39837;47.630;18.822;2023-03-03T20:47:03;11.20;;;5.22;;
53927;SDS011;39837;47.630;18.822;2023-03-03T20:53:23;5.00;;;4.60;;
53927;SDS011;39837;47.630;18.822;2023-03-03T21:05:14;4.35;;;3.97;;
53927;SDS011;39837;47.630;18.822;2023-03-03T21:08:02;5.60;;;4.35;;
53927;SDS011;39837;47.630;18.822;2023-03-03T21:10:55;6.38;;;5.28;;
53927;SDS011;39837;47.630;18.822;2023-03-03T21:13:47;5.72;;;5.18;;
53927;SDS011;39837;47.630;18.822;2023-03-03T21:16:34;3.95;;;3.65;;
53927;SDS011;39837;47.630;18.822;2023-03-03T21:19:36;8.68;;;5.28;;
53927;SDS011;39837;47.630;18.822;2023-03-03T21:22:20;10.38;;;3.20;;
53927;SDS011;39837;47.630;18.822;2023-03-03T21:25:05;6.97;;;5.18;;
53927;SDS011;39837;47.630;18.822;2023-03-03T21:27:49;6.45;;;4.10;;
53927;SDS011;39837;47.630;18.822;2023-03-03T21:30:33;2.95;;;2.75;;
53927;SDS011;39837;47.630;18.822;2023-03-03T21:42:09;9.77;;;4.38;;
53927;SDS011;39837;47.630;18.822;2023-03-03T21:44:54;9.65;;;3.97;;
53927;SDS011;39837;47.630;18.822;2023-03-03T21:47:38;6.95;;;4.25;;
53927;SDS011;39837;47.630;18.822;2023-03-03T21:50:22;4.75;;;4.35;;
53927;SDS011;39837;47.630;18.822;2023-03-03T21:53:07;6.32;;;3.72;;
53927;SDS011;39837;47.630;18.822;2023-03-03T21:55:52;4.70;;;4.22;;
53927;SDS011;39837;47.630;18.822;2023-03-03T21:58:36;3.72;;;3.50;;
53927;SDS011;39837;47.630;18.822;2023-03-03T22:01:20;8.95;;;3.80;;
53927;SDS011;39837;47.630;18.822;2023-03-03T22:04:05;5.25;;;4.10;;
53927;SDS011;39837;47.630;18.822;2023-03-03T22:06:49;6.13;;;3.28;;
53927;SDS011;39837;47.630;18.822;2023-03-03T22:09:35;6.85;;;4.22;;
53927;SDS011;39837;47.630;18.822;2023-03-03T22:12:19;3.10;;;2.90;;
53927;SDS011;39837;47.630;18.822;2023-03-03T22:15:03;5.55;;;4.72;;
53927;SDS011;39837;47.630;18.822;2023-03-03T22:17:48;5.68;;;5.20;;
53927;SDS011;39837;47.630;18.822;2023-03-03T22:20:31;7.18;;;4.60;;
53927;SDS011;39837;47.630;18.822;2023-03-03T22:23:17;2.45;;;2.35;;
53927;SDS011;39837;47.630;18.822;2023-03-03T22:26:01;3.83;;;3.55;;
53927;SDS011;39837;47.630;18.822;2023-03-03T22:28:46;2.72;;;2.53;;
53927;SDS011;39837;47.630;18.822;2023-03-03T22:31:31;5.18;;;3.05;;
53927;SDS011;39837;47.630;18.822;2023-03-03T22:34:16;3.20;;;2.95;;
53927;SDS011;39837;47.630;18.822;2023-03-03T22:37:00;4.25;;;3.38;;
53927;SDS011;39837;47.630;18.822;2023-03-03T22:39:44;7.53;;;4.68;;
53927;SDS011;39837;47.630;18.822;2023-03-03T22:42:28;4.03;;;3.00;;
53927;SDS011;39837;47.630;18.822;2023-03-03T22:45:12;11.77;;;3.63;;
53927;SDS011;39837;47.630;18.822;2023-03-03T22:47:56;4.38;;;3.97;;
53927;SDS011;39837;47.630;18.822;2023-03-03T22:50:41;6.50;;;4.90;;
53927;SDS011;39837;47.630;18.822;2023-03-03T22:53:27;3.72;;;3.45;;
53927;SDS011;39837;47.630;18.822;2023-03-03T22:56:11;2.47;;;2.40;;
53927;SDS011;39837;47.630;18.822;2023-03-03T22:58:55;4.45;;;4.07;;
53927;SDS011;39837;47.630;18.822;2023-03-03T23:01:39;4.07;;;3.60;;
53927;SDS011;39837;47.630;18.822;2023-03-03T23:04:23;7.72;;;4.72;;
53927;SDS011;39837;47.630;18.822;2023-03-03T23:07:07;2.95;;;2.75;;
53927;SDS011;39837;47.630;18.822;2023-03-03T23:09:51;3.85;;;3.55;;
53927;SDS011;39837;47.630;18.822;2023-03-03T23:12:35;16.55;;;3.55;;
53927;SDS011;39837;47.630;18.822;2023-03-03T23:15:20;10.35;;;3.53;;
53927;SDS011;39837;47.630;18.822;2023-03-03T23:18:05;5.25;;;2.97;;
53927;SDS011;39837;47.630;18.822;2023-03-03T23:20:49;3.15;;;2.95;;
53927;SDS011;39837;47.630;18.822;2023-03-03T23:23:33;4.13;;;2.25;;
53927;SDS011;39837;47.630;18.822;2023-03-03T23:26:16;4.13;;;2.97;;
53927;SDS011;39837;47.630;18.822;2023-03-03T23:29:00;2.92;;;2.33;;
53927;SDS011;39837;47.630;18.822;2023-03-03T23:31:44;3.30;;;3.08;;
53927;SDS011;39837;47.630;18.822;2023-03-03T23:34:29;6.63;;;3.22;;
53927;SDS011;39837;47.630;18.822;2023-03-03T23:37:13;8.70;;;4.25;;
53927;SDS011;39837;47.630;18.822;2023-03-03T23:39:58;3.40;;;3.17;;
53927;SDS011;39837;47.630;18.822;2023-03-03T23:42:44;3.67;;;3.45;;
53927;SDS011;39837;47.630;18.822;2023-03-03T23:45:28;3.17;;;3.00;;
53927;SDS011;39837;47.630;18.822;2023-03-03T23:48:12;2.85;;;2.75;;
53927;SDS011;39837;47.630;18.822;2023-03-03T23:50:57;2.53;;;2.33;;
53927;SDS011;39837;47.630;18.822;2023-03-03T23:53:41;7.07;;;4.93;;
53927;SDS011;39837;47.630;18.822;2023-03-03T23:56:25;4.05;;;3.75;;
53927;SDS011;39837;47.630;18.822;2023-03-03T23:59:09;6.68;;;3.13;;
